Time;durP1;ratioP1;P1;durP2;ratioP2;P2;SDS_P1;SDS_P2;PMS_P1;PMS_P2;Temp;Humidity;BMP_temperature;BMP_pressure;BME280_temperature;BME280_humidity;BME280_pressure;Samples;Min_cycle;Max_cycle;Signal;HPM_P1;HPM_P2
2022/08/19 00:02:05;;;;;;;13.20;8.60;;;;;;;;;;4972922;28;20389;-85
2022/08/19 00:04:32;;;;;;;13.82;9.18;;;;;;;;;;4972912;28;20403;-86
2022/08/19 00:06:59;;;;;;;13.45;8.55;;;;;;;;;;4972723;28;20101;-85
2022/08/19 00:09:26;;;;;;;12.35;8.93;;;;;;;;;;5005085;28;20450;-85
2022/08/19 00:11:55;;;;;;;13.23;9.25;;;;;;;;;;4972851;28;20114;-85
2022/08/19 00:14:21;;;;;;;13.18;8.82;;;;;;;;;;4972988;28;20153;-85
2022/08/19 00:16:48;;;;;;;15.00;9.43;;;;;;;;;;4973579;28;20112;-85
2022/08/19 00:19:15;;;;;;;16.10;9.40;;;;;;;;;;4972892;28;20043;-85
2022/08/19 00:21:41;;;;;;;14.68;9.60;;;;;;;;;;5003981;28;20123;-85
2022/08/19 00:24:09;;;;;;;13.45;9.25;;;;;;;;;;5003709;28;20134;-85
2022/08/19 00:26:35;;;;;;;13.40;9.68;;;;;;;;;;4973089;28;20074;-85
2022/08/19 00:29:01;;;;;;;12.35;9.35;;;;;;;;;;4973209;28;20051;-85
2022/08/19 00:31:27;;;;;;;14.00;10.32;;;;;;;;;;4972707;28;20178;-85
2022/08/19 00:33:54;;;;;;;14.27;9.65;;;;;;;;;;4973244;28;20042;-85
2022/08/19 00:36:20;;;;;;;15.23;10.43;;;;;;;;;;4971955;28;20051;-85
2022/08/19 00:38:46;;;;;;;14.40;9.73;;;;;;;;;;5004262;28;20057;-85
2022/08/19 00:41:14;;;;;;;13.65;9.38;;;;;;;;;;5004341;28;20051;-85
2022/08/19 00:43:41;;;;;;;12.90;9.13;;;;;;;;;;4972488;28;20120;-85
2022/08/19 00:46:07;;;;;;;12.25;9.45;;;;;;;;;;4971717;28;20055;-85
2022/08/19 00:48:33;;;;;;;14.80;9.18;;;;;;;;;;5004087;28;20146;-85
2022/08/19 00:50:59;;;;;;;16.15;9.88;;;;;;;;;;4972282;28;20404;-85
2022/08/19 00:53:27;;;;;;;13.02;9.10;;;;;;;;;;4972235;28;20042;-85
2022/08/19 00:55:55;;;;;;;14.30;9.80;;;;;;;;;;4972314;28;20054;-85
2022/08/19 00:58:22;;;;;;;14.43;9.02;;;;;;;;;;4972978;28;20129;-85
2022/08/19 01:00:49;;;;;;;16.88;9.90;;;;;;;;;;4972714;28;20057;-85
2022/08/19 01:03:17;;;;;;;13.00;9.25;;;;;;;;;;5003163;28;20047;-85
2022/08/19 01:05:44;;;;;;;12.52;9.45;;;;;;;;;;4971518;28;20043;-85
2022/08/19 01:08:10;;;;;;;12.20;9.27;;;;;;;;;;4972282;28;20399;-85
2022/08/19 01:10:43;;;;;;;13.68;9.45;;;;;;;;;;4972880;28;20607;-85
2022/08/19 01:13:09;;;;;;;14.02;10.15;;;;;;;;;;4971820;28;20081;-85
2022/08/19 01:15:47;;;;;;;15.25;9.50;;;;;;;;;;4971827;28;20126;-85
2022/08/19 01:18:14;;;;;;;13.98;10.23;;;;;;;;;;4971941;28;20074;-85
2022/08/19 01:20:41;;;;;;;14.45;10.23;;;;;;;;;;4972807;28;20047;-85
2022/08/19 01:23:07;;;;;;;12.88;9.13;;;;;;;;;;4971545;28;20523;-85
2022/08/19 01:25:40;;;;;;;12.13;9.65;;;;;;;;;;4971909;28;20042;-85
2022/08/19 01:28:06;;;;;;;13.10;9.65;;;;;;;;;;5002826;28;20488;-85
2022/08/19 01:30:34;;;;;;;12.75;9.40;;;;;;;;;;4972814;28;20050;-85
2022/08/19 01:33:00;;;;;;;13.63;9.93;;;;;;;;;;4971020;28;20046;-85
2022/08/19 01:35:28;;;;;;;11.20;8.95;;;;;;;;;;5002696;28;20051;-85
2022/08/19 01:37:59;;;;;;;12.82;9.27;;;;;;;;;;4972220;28;20049;-85
2022/08/19 01:40:26;;;;;;;11.93;9.18;;;;;;;;;;4972269;28;20049;-85
2022/08/19 01:42:53;;;;;;;15.32;9.50;;;;;;;;;;4972640;28;20511;-85
2022/08/19 01:45:20;;;;;;;12.50;9.10;;;;;;;;;;5002168;28;20051;-85
2022/08/19 01:47:46;;;;;;;12.63;9.18;;;;;;;;;;4971491;28;20077;-85
2022/08/19 01:50:13;;;;;;;12.25;8.95;;;;;;;;;;4970610;28;20530;-85
2022/08/19 01:52:40;;;;;;;15.20;9.25;;;;;;;;;;4971293;28;20423;-85
2022/08/19 01:55:08;;;;;;;13.52;8.80;;;;;;;;;;4970804;28;20090;-85
2022/08/19 01:57:34;;;;;;;13.25;9.10;;;;;;;;;;4972033;28;20053;-85
2022/08/19 02:00:04;;;;;;;15.05;10.23;;;;;;;;;;4972070;28;20097;-85
2022/08/19 02:02:31;;;;;;;16.55;11.05;;;;;;;;;;4971131;28;20051;-85
2022/08/19 02:04:57;;;;;;;14.18;9.77;;;;;;;;;;5002231;28;20054;-85
2022/08/19 02:07:23;;;;;;;16.30;10.82;;;;;;;;;;4971952;28;20043;-85
2022/08/19 02:09:49;;;;;;;13.05;10.40;;;;;;;;;;4970897;28;20098;-85
2022/08/19 02:12:16;;;;;;;20.08;10.95;;;;;;;;;;4969939;28;20051;-85
2022/08/19 02:14:42;;;;;;;15.43;11.15;;;;;;;;;;4971339;28;20046;-85
2022/08/19 02:17:08;;;;;;;16.80;11.45;;;;;;;;;;4971202;28;20042;-85
2022/08/19 02:19:34;;;;;;;13.65;10.30;;;;;;;;;;4972213;28;20050;-85
2022/08/19 02:22:01;;;;;;;18.77;11.10;;;;;;;;;;4970826;28;20118;-85
2022/08/19 02:24:27;;;;;;;16.60;11.40;;;;;;;;;;4971132;28;20186;-85
2022/08/19 02:26:53;;;;;;;19.33;11.35;;;;;;;;;;4972240;28;20047;-85
2022/08/19 02:29:20;;;;;;;14.45;10.90;;;;;;;;;;4971985;28;20050;-85
2022/08/19 02:31:46;;;;;;;16.27;11.73;;;;;;;;;;4970159;28;20179;-85
2022/08/19 02:34:12;;;;;;;17.00;11.55;;;;;;;;;;5002652;28;20039;-85
2022/08/19 02:36:38;;;;;;;16.20;11.13;;;;;;;;;;4968987;28;20043;-85
2022/08/19 02:39:04;;;;;;;16.90;11.45;;;;;;;;;;5002717;28;20085;-85
2022/08/19 02:41:33;;;;;;;17.42;11.57;;;;;;;;;;4973974;28;20082;-85
2022/08/19 02:44:00;;;;;;;16.25;11.13;;;;;;;;;;4975249;28;20058;-85
2022/08/19 02:46:28;;;;;;;16.02;11.07;;;;;;;;;;4973951;28;20492;-85
2022/08/19 02:48:56;;;;;;;17.63;11.57;;;;;;;;;;5006298;28;20057;-85
2022/08/19 02:51:25;;;;;;;17.98;11.45;;;;;;;;;;4974366;28;20050;-85
2022/08/19 02:53:51;;;;;;;17.27;12.80;;;;;;;;;;5006596;28;20054;-85
2022/08/19 02:56:18;;;;;;;17.98;12.55;;;;;;;;;;4974085;28;20050;-85
2022/08/19 02:58:44;;;;;;;16.33;11.05;;;;;;;;;;4975289;28;20039;-85
2022/08/19 03:01:11;;;;;;;16.00;10.98;;;;;;;;;;4973681;28;20121;-85
2022/08/19 03:03:37;;;;;;;16.92;11.88;;;;;;;;;;4974973;28;20492;-85
2022/08/19 03:06:11;;;;;;;18.88;12.60;;;;;;;;;;4973643;28;20046;-85
2022/08/19 03:08:39;;;;;;;17.50;11.75;;;;;;;;;;4975234;28;20069;-85
2022/08/19 03:11:05;;;;;;;17.85;11.48;;;;;;;;;;4974142;28;20042;-85
2022/08/19 03:13:32;;;;;;;17.85;12.07;;;;;;;;;;4974683;28;20047;-85
2022/08/19 03:15:58;;;;;;;16.13;11.32;;;;;;;;;;5004348;28;20137;-85
2022/08/19 03:18:24;;;;;;;16.50;11.55;;;;;;;;;;5005490;28;20054;-85
2022/08/19 03:20:54;;;;;;;15.93;10.50;;;;;;;;;;4973958;28;20054;-85
2022/08/19 03:23:21;;;;;;;17.55;11.52;;;;;;;;;;4974711;28;20050;-85
2022/08/19 03:25:48;;;;;;;18.38;11.05;;;;;;;;;;4974016;28;20043;-85
2022/08/19 03:28:15;;;;;;;15.52;11.95;;;;;;;;;;4974512;28;20046;-85
2022/08/19 03:30:42;;;;;;;16.30;11.68;;;;;;;;;;5005374;28;20074;-85
2022/08/19 03:33:08;;;;;;;15.82;10.98;;;;;;;;;;5004608;28;20050;-85
2022/08/19 03:35:36;;;;;;;15.63;10.70;;;;;;;;;;4973501;28;20134;-85
2022/08/19 03:38:03;;;;;;;19.52;10.73;;;;;;;;;;4974158;28;20396;-85
2022/08/19 03:40:30;;;;;;;15.40;11.30;;;;;;;;;;5006000;28;20050;-85
2022/08/19 03:42:56;;;;;;;14.98;10.82;;;;;;;;;;4972791;28;20042;-85
2022/08/19 03:45:22;;;;;;;17.50;11.25;;;;;;;;;;4973266;28;20504;-84
2022/08/19 03:47:48;;;;;;;20.38;12.35;;;;;;;;;;5005564;28;20050;-85
2022/08/19 03:50:15;;;;;;;15.60;11.40;;;;;;;;;;4974084;28;20058;-85
2022/08/19 03:52:41;;;;;;;16.90;11.93;;;;;;;;;;4973023;28;20039;-85
2022/08/19 03:55:07;;;;;;;18.38;11.88;;;;;;;;;;4972074;28;20058;-85
2022/08/19 03:57:34;;;;;;;17.65;12.23;;;;;;;;;;5004789;28;20050;-85
2022/08/19 04:00:00;;;;;;;19.63;11.48;;;;;;;;;;5005114;28;20426;-85
2022/08/19 04:02:27;;;;;;;17.08;11.65;;;;;;;;;;5004615;28;20059;-85
2022/08/19 04:04:54;;;;;;;16.95;11.57;;;;;;;;;;4973309;28;20047;-85
2022/08/19 04:07:21;;;;;;;17.00;11.77;;;;;;;;;;5005488;28;20069;-85
2022/08/19 04:09:47;;;;;;;21.10;11.07;;;;;;;;;;5005520;28;20046;-85
2022/08/19 04:12:14;;;;;;;17.35;12.40;;;;;;;;;;4972364;28;20039;-85
2022/08/19 04:14:41;;;;;;;20.00;13.43;;;;;;;;;;5003684;28;20050;-85
2022/08/19 04:17:07;;;;;;;17.75;11.88;;;;;;;;;;4973310;28;20051;-85
2022/08/19 04:19:34;;;;;;;16.80;11.80;;;;;;;;;;5005061;28;20121;-85
2022/08/19 04:22:00;;;;;;;16.20;11.70;;;;;;;;;;4972799;28;20043;-85
2022/08/19 04:24:26;;;;;;;17.58;11.90;;;;;;;;;;5004907;28;20043;-85
2022/08/19 04:26:55;;;;;;;18.55;11.32;;;;;;;;;;4972378;28;20039;-85
2022/08/19 04:29:24;;;;;;;17.20;11.13;;;;;;;;;;4973396;28;20407;-85
2022/08/19 04:31:51;;;;;;;19.80;11.27;;;;;;;;;;4972910;28;20041;-85
2022/08/19 04:34:21;;;;;;;19.38;11.60;;;;;;;;;;5004513;28;20047;-85
2022/08/19 04:36:48;;;;;;;17.75;11.60;;;;;;;;;;5003825;28;20455;-85
2022/08/19 04:39:15;;;;;;;19.48;11.65;;;;;;;;;;4973040;28;20069;-85
2022/08/19 04:44:30;;;;;;;16.90;12.25;;;;;;;;;;4973385;28;20043;-85
2022/08/19 04:46:56;;;;;;;16.80;10.50;;;;;;;;;;4971671;28;20176;-85
2022/08/19 04:49:22;;;;;;;16.88;11.15;;;;;;;;;;4973087;28;20062;-85
2022/08/19 04:51:49;;;;;;;19.85;12.23;;;;;;;;;;4972261;28;20169;-85
2022/08/19 04:54:16;;;;;;;15.68;11.13;;;;;;;;;;4972417;28;20057;-85
2022/08/19 04:56:43;;;;;;;16.25;10.65;;;;;;;;;;4971546;28;20042;-85
2022/08/19 04:59:10;;;;;;;15.43;11.05;;;;;;;;;;5004288;28;20038;-85
2022/08/19 05:01:36;;;;;;;15.90;10.57;;;;;;;;;;4972478;28;20049;-85
2022/08/19 05:04:04;;;;;;;16.30;10.73;;;;;;;;;;4971917;28;20574;-85
2022/08/19 05:06:34;;;;;;;16.08;11.10;;;;;;;;;;5003543;28;20129;-85
2022/08/19 05:09:01;;;;;;;17.98;10.75;;;;;;;;;;4972316;28;20101;-85
2022/08/19 05:11:30;;;;;;;16.85;10.63;;;;;;;;;;4971651;28;20043;-85
2022/08/19 05:13:56;;;;;;;19.65;11.68;;;;;;;;;;4972302;28;20046;-86
2022/08/19 05:16:23;;;;;;;18.85;11.77;;;;;;;;;;4972097;28;20097;-86
2022/08/19 05:24:20;;;;;;;15.88;10.57;;;;;;;;;;4970926;28;20079;-85
2022/08/19 05:26:47;;;;;;;17.63;10.90;;;;;;;;;;4971858;28;20089;-85
2022/08/19 05:29:14;;;;;;;16.48;11.05;;;;;;;;;;5003808;28;20053;-85
2022/08/19 05:31:41;;;;;;;18.55;10.45;;;;;;;;;;4972315;28;20046;-85
2022/08/19 05:34:07;;;;;;;15.82;10.38;;;;;;;;;;5003428;28;20066;-86
2022/08/19 05:36:39;;;;;;;16.30;11.00;;;;;;;;;;4971896;28;20157;-85
2022/08/19 05:39:06;;;;;;;14.90;10.77;;;;;;;;;;4971619;28;20054;-85
2022/08/19 05:41:32;;;;;;;15.27;10.52;;;;;;;;;;4971576;28;20054;-85
2022/08/19 05:43:58;;;;;;;16.63;10.73;;;;;;;;;;5003382;28;20062;-85
2022/08/19 05:46:24;;;;;;;15.00;10.90;;;;;;;;;;4970576;28;20066;-85
2022/08/19 05:48:51;;;;;;;16.58;12.18;;;;;;;;;;4970574;28;20047;-85
2022/08/19 05:51:17;;;;;;;16.88;11.50;;;;;;;;;;4972019;28;20042;-85
2022/08/19 05:53:45;;;;;;;14.50;11.73;;;;;;;;;;4971713;28;20121;-85
2022/08/19 05:56:14;;;;;;;18.15;11.95;;;;;;;;;;5003446;28;20061;-85
2022/08/19 05:58:41;;;;;;;15.15;11.00;;;;;;;;;;4970860;28;20047;-84
2022/08/19 06:01:12;;;;;;;17.00;11.48;;;;;;;;;;5002906;28;20050;-91
2022/08/19 06:03:39;;;;;;;17.98;11.88;;;;;;;;;;5002210;28;20403;-85
2022/08/19 06:06:07;;;;;;;15.57;11.70;;;;;;;;;;5002597;28;20412;-86
2022/08/19 06:08:33;;;;;;;15.95;10.95;;;;;;;;;;4970924;28;20051;-83
2022/08/19 06:11:11;;;;;;;19.17;12.38;;;;;;;;;;4971348;28;20053;-82
2022/08/19 06:13:38;;;;;;;18.45;11.63;;;;;;;;;;5000693;28;20138;-84
2022/08/19 06:16:04;;;;;;;16.63;11.70;;;;;;;;;;4975062;28;20057;-84
2022/08/19 06:18:30;;;;;;;15.95;11.63;;;;;;;;;;4975700;28;20488;-84
2022/08/19 06:20:56;;;;;;;17.45;11.75;;;;;;;;;;4975851;28;20138;-84
2022/08/19 06:23:22;;;;;;;18.23;12.35;;;;;;;;;;4975147;28;20466;-84
2022/08/19 06:25:48;;;;;;;15.18;11.15;;;;;;;;;;4974131;28;20042;-84
2022/08/19 06:28:14;;;;;;;17.67;12.07;;;;;;;;;;4975226;28;20051;-84
2022/08/19 06:30:41;;;;;;;16.58;11.98;;;;;;;;;;5007017;28;20125;-83
2022/08/19 06:33:07;;;;;;;18.02;11.60;;;;;;;;;;5006849;28;20074;-84
2022/08/19 06:35:33;;;;;;;16.83;12.82;;;;;;;;;;4989238;28;20038;-84
2022/08/19 06:37:59;;;;;;;17.98;12.50;;;;;;;;;;4974209;28;20047;-84
2022/08/19 06:40:27;;;;;;;19.15;12.07;;;;;;;;;;5005917;28;20492;-83
2022/08/19 06:42:53;;;;;;;19.35;12.40;;;;;;;;;;4975490;28;20054;-84
2022/08/19 06:45:20;;;;;;;17.42;11.95;;;;;;;;;;5004129;28;20054;-84
2022/08/19 06:47:48;;;;;;;17.35;12.85;;;;;;;;;;4972744;28;20054;-93
2022/08/19 06:50:14;;;;;;;16.45;11.63;;;;;;;;;;4976069;28;20050;-89
2022/08/19 06:52:40;;;;;;;17.35;12.88;;;;;;;;;;4990391;28;20062;-90
2022/08/19 06:55:06;;;;;;;14.27;11.45;;;;;;;;;;4975417;28;20114;-90
2022/08/19 06:57:32;;;;;;;18.25;12.00;;;;;;;;;;5005249;28;20043;-90
2022/08/19 06:59:59;;;;;;;17.65;12.07;;;;;;;;;;4975260;28;20050;-90
2022/08/19 07:02:26;;;;;;;15.90;11.90;;;;;;;;;;5006729;28;20125;-90
2022/08/19 07:04:52;;;;;;;21.15;12.63;;;;;;;;;;5007199;28;20400;-90
2022/08/19 07:07:19;;;;;;;17.85;12.63;;;;;;;;;;4973049;28;20499;-90
2022/08/19 07:09:45;;;;;;;16.65;12.40;;;;;;;;;;4974004;28;20294;-84
2022/08/19 07:12:12;;;;;;;18.88;12.15;;;;;;;;;;5003818;28;20057;-83
2022/08/19 07:14:39;;;;;;;15.68;12.57;;;;;;;;;;4975217;28;20587;-90
2022/08/19 07:17:09;;;;;;;17.25;12.23;;;;;;;;;;5006346;28;20133;-87
2022/08/19 07:19:36;;;;;;;18.65;13.00;;;;;;;;;;4975003;28;20101;-84
2022/08/19 07:22:04;;;;;;;16.85;12.63;;;;;;;;;;4973853;28;20403;-82
2022/08/19 07:24:30;;;;;;;16.45;12.35;;;;;;;;;;4974053;28;20043;-83
2022/08/19 07:27:00;;;;;;;16.73;12.82;;;;;;;;;;4971210;28;20785;-88
2022/08/19 07:29:27;;;;;;;16.58;12.82;;;;;;;;;;4974164;28;20074;-84
2022/08/19 07:31:56;;;;;;;18.67;13.13;;;;;;;;;;4975606;28;20100;-87
2022/08/19 07:34:22;;;;;;;16.80;13.30;;;;;;;;;;4985025;28;20039;-84
2022/08/19 07:36:49;;;;;;;18.85;14.15;;;;;;;;;;4974106;28;20055;-84
2022/08/19 07:39:20;;;;;;;19.52;13.95;;;;;;;;;;5005467;28;20070;-90
2022/08/19 07:41:47;;;;;;;16.27;13.32;;;;;;;;;;5005947;28;20055;-84
2022/08/19 07:44:13;;;;;;;16.73;13.27;;;;;;;;;;4980103;28;20088;-88
2022/08/19 07:46:41;;;;;;;16.85;13.38;;;;;;;;;;5022001;28;20050;-85
2022/08/19 07:49:08;;;;;;;19.52;14.70;;;;;;;;;;4973151;28;20389;-83
2022/08/19 07:51:34;;;;;;;18.95;14.30;;;;;;;;;;4969152;28;20043;-82
2022/08/19 07:54:00;;;;;;;17.67;14.55;;;;;;;;;;4974654;28;20601;-84
2022/08/19 07:56:26;;;;;;;17.70;13.85;;;;;;;;;;4970225;28;20572;-85
2022/08/19 07:58:52;;;;;;;20.13;14.25;;;;;;;;;;4968185;28;20046;-84
2022/08/19 08:01:20;;;;;;;18.55;14.32;;;;;;;;;;4973262;28;20042;-83
2022/08/19 08:09:22;;;;;;;17.50;14.45;;;;;;;;;;5003275;28;20043;-83
2022/08/19 08:11:50;;;;;;;19.52;14.00;;;;;;;;;;4968918;28;20069;-83
2022/08/19 08:14:17;;;;;;;19.42;13.57;;;;;;;;;;5003561;28;20407;-84
2022/08/19 08:16:45;;;;;;;18.40;14.23;;;;;;;;;;4998360;28;20042;-85
2022/08/19 08:19:13;;;;;;;16.00;14.30;;;;;;;;;;4965849;28;20460;-84
2022/08/19 08:21:39;;;;;;;17.13;14.98;;;;;;;;;;4969219;28;20130;-83
2022/08/19 08:24:05;;;;;;;18.17;14.40;;;;;;;;;;4972189;28;20181;-84
2022/08/19 08:26:31;;;;;;;18.92;14.48;;;;;;;;;;4974775;28;20046;-84
2022/08/19 08:28:57;;;;;;;16.83;14.30;;;;;;;;;;5020280;28;20050;-84
2022/08/19 08:31:23;;;;;;;17.70;14.73;;;;;;;;;;4971427;28;20101;-84
2022/08/19 08:33:49;;;;;;;19.40;15.25;;;;;;;;;;4970741;28;20416;-84
2022/08/19 08:36:16;;;;;;;18.88;15.98;;;;;;;;;;4972000;28;20488;-84
2022/08/19 08:38:45;;;;;;;21.08;16.80;;;;;;;;;;4963060;28;20090;-84
2022/08/19 08:41:21;;;;;;;18.15;14.57;;;;;;;;;;4969972;28;20061;-84
2022/08/19 08:43:50;;;;;;;19.67;15.23;;;;;;;;;;5002064;28;20129;-84
2022/08/19 08:46:22;;;;;;;18.23;15.40;;;;;;;;;;5002007;28;20117;-84
2022/08/19 08:48:53;;;;;;;18.10;15.18;;;;;;;;;;5019700;28;20107;-84
2022/08/19 08:51:24;;;;;;;18.25;15.93;;;;;;;;;;4969528;28;20047;-84
2022/08/19 08:53:53;;;;;;;21.13;17.63;;;;;;;;;;4971491;28;20035;-84
2022/08/19 08:56:19;;;;;;;21.33;16.77;;;;;;;;;;4985755;28;20503;-85
2022/08/19 08:58:45;;;;;;;20.27;17.75;;;;;;;;;;4971331;28;20125;-84
2022/08/19 09:01:12;;;;;;;22.60;18.65;;;;;;;;;;4998527;28;20146;-84
2022/08/19 09:03:39;;;;;;;22.75;18.42;;;;;;;;;;4969166;28;20046;-84
2022/08/19 09:06:11;;;;;;;21.02;18.20;;;;;;;;;;4967083;28;20047;-85
2022/08/19 09:08:48;;;;;;;20.17;17.10;;;;;;;;;;5002760;28;20077;-84
2022/08/19 09:11:40;;;;;;;21.40;18.25;;;;;;;;;;4971925;28;20130;-84
2022/08/19 09:14:10;;;;;;;22.67;19.13;;;;;;;;;;4963335;28;20055;-84
2022/08/19 09:16:40;;;;;;;22.40;20.00;;;;;;;;;;4971494;28;20551;-86
2022/08/19 09:19:07;;;;;;;25.33;20.90;;;;;;;;;;4969226;28;20118;-83
2022/08/19 09:21:34;;;;;;;23.33;20.73;;;;;;;;;;4990810;28;20042;-83
2022/08/19 09:24:01;;;;;;;25.35;20.67;;;;;;;;;;4991637;28;20046;-84
2022/08/19 09:26:27;;;;;;;25.05;21.23;;;;;;;;;;4979979;28;20035;-83
2022/08/19 09:28:54;;;;;;;24.73;21.20;;;;;;;;;;4968696;28;20054;-84
2022/08/19 09:31:24;;;;;;;25.77;21.70;;;;;;;;;;4987363;28;20389;-83
2022/08/19 09:33:51;;;;;;;27.23;22.00;;;;;;;;;;5006134;28;20047;-83
2022/08/19 09:36:18;;;;;;;26.10;21.88;;;;;;;;;;4970015;28;20054;-83
2022/08/19 09:38:44;;;;;;;27.88;21.42;;;;;;;;;;4972434;28;20043;-84
2022/08/19 09:41:14;;;;;;;26.42;21.85;;;;;;;;;;4969762;28;20850;-83
2022/08/19 09:43:40;;;;;;;30.08;24.55;;;;;;;;;;4973850;28;20506;-90
2022/08/19 09:46:08;;;;;;;29.75;23.88;;;;;;;;;;5002430;28;20471;-94
2022/08/19 09:48:35;;;;;;;27.67;22.23;;;;;;;;;;5009377;28;20427;-96
2022/08/19 09:51:16;;;;;;;26.67;21.67;;;;;;;;;;5001355;28;20069;-92
2022/08/19 09:53:43;;;;;;;24.98;20.60;;;;;;;;;;4950247;28;20133;-91
2022/08/19 09:56:10;;;;;;;27.73;22.52;;;;;;;;;;4987232;28;20564;-92
2022/08/19 09:58:37;;;;;;;26.52;22.25;;;;;;;;;;4978747;28;20053;-96
2022/08/19 10:01:04;;;;;;;26.33;22.25;;;;;;;;;;4985011;28;20050;-90
2022/08/19 10:03:31;;;;;;;28.17;21.30;;;;;;;;;;5005901;28;20090;-94
2022/08/19 10:05:58;;;;;;;28.30;22.10;;;;;;;;;;5005185;28;20059;-96
2022/08/19 10:08:29;;;;;;;27.75;22.48;;;;;;;;;;4970796;28;20058;-91
2022/08/19 10:10:55;;;;;;;27.27;19.88;;;;;;;;;;5002419;28;20082;-91
2022/08/19 10:13:23;;;;;;;27.83;22.17;;;;;;;;;;5003226;28;20531;-89
2022/08/19 10:15:52;;;;;;;27.45;22.05;;;;;;;;;;4971364;28;20555;-90
2022/08/19 10:18:20;;;;;;;25.67;21.48;;;;;;;;;;4996137;28;20040;-90
2022/08/19 10:20:47;;;;;;;24.00;20.88;;;;;;;;;;4969331;28;20512;-90
2022/08/19 10:23:13;;;;;;;23.40;18.25;;;;;;;;;;4963362;28;20046;-90
2022/08/19 10:25:39;;;;;;;24.35;18.67;;;;;;;;;;4970741;28;20129;-90
2022/08/19 10:28:07;;;;;;;25.10;18.30;;;;;;;;;;4961409;28;20566;-90
2022/08/19 10:30:33;;;;;;;23.63;17.40;;;;;;;;;;4962963;28;20047;-89
2022/08/19 10:32:59;;;;;;;21.05;17.08;;;;;;;;;;4994019;28;20042;-88
2022/08/19 10:35:27;;;;;;;21.42;17.38;;;;;;;;;;4994751;28;20526;-89
2022/08/19 10:37:53;;;;;;;21.35;17.10;;;;;;;;;;4964999;28;20062;-91
2022/08/19 10:40:19;;;;;;;22.20;16.50;;;;;;;;;;4962068;28;20051;-94
2022/08/19 10:42:45;;;;;;;20.63;16.05;;;;;;;;;;4998085;28;20050;-90
2022/08/19 10:45:11;;;;;;;21.25;16.70;;;;;;;;;;5002723;28;20050;-91
2022/08/19 10:47:37;;;;;;;18.00;14.82;;;;;;;;;;4970217;28;20054;-96
2022/08/19 10:52:49;;;;;;;18.60;14.27;;;;;;;;;;4971100;28;20047;-90
2022/08/19 10:58:00;;;;;;;16.30;13.43;;;;;;;;;;5002127;28;20051;-90
2022/08/19 11:00:26;;;;;;;19.60;14.40;;;;;;;;;;5002749;28;20054;-91
2022/08/19 11:02:52;;;;;;;16.60;12.40;;;;;;;;;;4973489;28;20043;-92
2022/08/19 11:05:18;;;;;;;20.88;12.45;;;;;;;;;;5006272;28;20054;-94
2022/08/19 11:07:45;;;;;;;14.57;11.82;;;;;;;;;;5007413;28;20043;-91
2022/08/19 11:10:12;;;;;;;14.75;11.07;;;;;;;;;;4974664;28;20133;-91
2022/08/19 11:12:39;;;;;;;16.67;11.52;;;;;;;;;;4974101;28;20435;-91
2022/08/19 11:15:10;;;;;;;14.98;11.23;;;;;;;;;;5005205;28;20058;-91
2022/08/19 11:17:40;;;;;;;12.90;9.93;;;;;;;;;;4974124;28;20050;-91
2022/08/19 11:20:06;;;;;;;15.93;10.07;;;;;;;;;;4974661;28;20058;-91
2022/08/19 11:22:32;;;;;;;15.20;10.75;;;;;;;;;;4973736;28;20110;-91
2022/08/19 11:24:58;;;;;;;16.48;9.60;;;;;;;;;;4974605;28;20101;-92
2022/08/19 11:27:24;;;;;;;13.82;9.70;;;;;;;;;;5006107;28;20078;-93
2022/08/19 11:29:52;;;;;;;14.32;9.98;;;;;;;;;;4972294;28;20050;-90
2022/08/19 11:32:18;;;;;;;12.80;9.13;;;;;;;;;;4972242;28;20050;-91
2022/08/19 11:34:44;;;;;;;14.77;10.68;;;;;;;;;;4972989;28;20031;-91
2022/08/19 11:37:10;;;;;;;12.18;9.40;;;;;;;;;;4974622;28;20419;-91
2022/08/19 11:39:37;;;;;;;13.18;9.93;;;;;;;;;;5005972;28;20503;-92
2022/08/19 11:42:54;;;;;;;11.85;9.13;;;;;;;;;;5004153;28;20046;-91
2022/08/19 11:44:50;;;;;;;12.77;7.70;;;;;;;;;;4971265;28;20415;-91
2022/08/19 11:47:16;;;;;;;10.57;7.75;;;;;;;;;;5005960;28;20535;-95
2022/08/19 11:49:42;;;;;;;11.50;7.60;;;;;;;;;;5004470;28;20051;-94
2022/08/19 11:52:09;;;;;;;12.43;8.27;;;;;;;;;;5007238;28;20381;-94
2022/08/19 11:54:35;;;;;;;10.27;7.32;;;;;;;;;;5005909;28;20043;-96
2022/08/19 11:57:02;;;;;;;14.85;8.15;;;;;;;;;;5017360;28;20420;-96
2022/08/19 11:59:29;;;;;;;11.15;7.50;;;;;;;;;;4986094;28;20030;-96
2022/08/19 12:01:55;;;;;;;10.07;8.18;;;;;;;;;;5000610;28;20050;-96
2022/08/19 12:04:21;;;;;;;11.80;8.73;;;;;;;;;;5005649;28;20046;-90
2022/08/19 12:06:47;;;;;;;14.70;9.70;;;;;;;;;;4990247;28;20057;-94
2022/08/19 12:09:15;;;;;;;12.63;9.30;;;;;;;;;;5006920;28;20564;-96
2022/08/19 12:11:41;;;;;;;13.38;9.32;;;;;;;;;;4979700;28;20082;-90
2022/08/19 12:14:09;;;;;;;17.85;11.23;;;;;;;;;;5003666;28;20046;-90
2022/08/19 12:16:35;;;;;;;10.82;9.27;;;;;;;;;;4971879;28;20047;-90
2022/08/19 12:19:04;;;;;;;16.77;11.15;;;;;;;;;;4973338;28;20054;-91
2022/08/19 12:21:31;;;;;;;12.18;9.05;;;;;;;;;;5003436;28;20141;-91
2022/08/19 12:23:59;;;;;;;13.80;8.60;;;;;;;;;;4971989;28;20479;-90
2022/08/19 12:26:26;;;;;;;11.75;8.20;;;;;;;;;;5003648;28;20043;-90
2022/08/19 12:28:52;;;;;;;10.20;8.70;;;;;;;;;;5003271;28;20509;-90
2022/08/19 12:31:19;;;;;;;11.02;6.95;;;;;;;;;;4973042;28;20042;-90
2022/08/19 12:33:45;;;;;;;10.52;6.72;;;;;;;;;;4973171;28;20158;-90
2022/08/19 12:36:12;;;;;;;10.30;7.80;;;;;;;;;;5004473;28;20051;-91
2022/08/19 12:38:39;;;;;;;11.77;8.15;;;;;;;;;;5003199;28;20047;-91
2022/08/19 12:41:06;;;;;;;11.80;9.00;;;;;;;;;;4973241;28;20047;-91
2022/08/19 12:43:32;;;;;;;13.32;9.73;;;;;;;;;;4971980;28;20039;-92
2022/08/19 12:45:58;;;;;;;16.58;10.73;;;;;;;;;;5004594;28;20055;-94
2022/08/19 12:48:24;;;;;;;15.57;10.32;;;;;;;;;;5004505;28;20059;-89
2022/08/19 12:50:50;;;;;;;15.48;10.13;;;;;;;;;;4973259;28;20109;-89
2022/08/19 12:53:17;;;;;;;13.85;10.27;;;;;;;;;;5019697;28;20428;-89
2022/08/19 12:55:43;;;;;;;16.83;11.10;;;;;;;;;;4972690;28;20135;-89
2022/08/19 12:58:10;;;;;;;14.32;11.63;;;;;;;;;;4970050;28;20432;-88
2022/08/19 13:00:36;;;;;;;15.07;10.77;;;;;;;;;;5003644;28;20250;-88
2022/08/19 13:03:02;;;;;;;14.73;9.85;;;;;;;;;;4972239;28;20046;-88
2022/08/19 13:05:29;;;;;;;14.10;10.38;;;;;;;;;;4987862;28;20046;-87
2022/08/19 13:07:57;;;;;;;15.82;9.30;;;;;;;;;;4969463;28;20039;-86
2022/08/19 13:10:24;;;;;;;13.07;8.70;;;;;;;;;;4970607;28;20053;-86
2022/08/19 13:12:51;;;;;;;11.50;8.50;;;;;;;;;;5002818;28;20055;-88
2022/08/19 13:15:20;;;;;;;12.80;8.57;;;;;;;;;;5003067;28;20094;-88
2022/08/19 13:17:48;;;;;;;12.10;9.63;;;;;;;;;;4969567;28;20047;-88
2022/08/19 13:20:15;;;;;;;11.73;9.13;;;;;;;;;;4971432;28;20054;-88
2022/08/19 13:22:42;;;;;;;11.70;8.48;;;;;;;;;;4970773;28;20157;-89
2022/08/19 13:25:08;;;;;;;11.40;8.30;;;;;;;;;;4970707;28;20057;-88
2022/08/19 13:27:35;;;;;;;10.45;8.82;;;;;;;;;;4970976;28;20141;-87
2022/08/19 13:35:30;;;;;;;14.73;9.65;;;;;;;;;;4968927;28;20129;-87
2022/08/19 13:37:56;;;;;;;13.00;11.02;;;;;;;;;;4971468;28;20069;-87
2022/08/19 13:40:26;;;;;;;17.45;10.13;;;;;;;;;;4971683;28;20117;-88
2022/08/19 13:42:52;;;;;;;16.10;10.10;;;;;;;;;;4971971;28;20094;-87
2022/08/19 13:45:20;;;;;;;12.25;9.82;;;;;;;;;;4970635;28;20042;-90
2022/08/19 13:47:50;;;;;;;14.15;10.93;;;;;;;;;;5002647;28;20062;-88
2022/08/19 13:50:17;;;;;;;15.57;11.43;;;;;;;;;;5001011;28;20051;-89
2022/08/19 13:52:44;;;;;;;16.38;11.70;;;;;;;;;;4970584;28;20106;-89
2022/08/19 13:55:11;;;;;;;13.70;11.55;;;;;;;;;;5001953;28;20047;-88
2022/08/19 13:57:38;;;;;;;13.88;11.32;;;;;;;;;;5002957;28;20082;-89
2022/08/19 14:00:06;;;;;;;14.52;10.63;;;;;;;;;;5002046;28;20101;-89
2022/08/19 14:02:32;;;;;;;16.15;12.43;;;;;;;;;;4970262;28;20055;-88
2022/08/19 14:04:59;;;;;;;15.50;12.27;;;;;;;;;;4970485;28;20053;-89
2022/08/19 14:07:25;;;;;;;14.00;11.15;;;;;;;;;;4969745;28;20042;-89
2022/08/19 14:09:51;;;;;;;13.60;10.35;;;;;;;;;;4988941;28;20050;-88
2022/08/19 14:12:20;;;;;;;14.52;9.82;;;;;;;;;;4970453;28;20039;-89
2022/08/19 14:14:47;;;;;;;13.27;8.88;;;;;;;;;;5003225;28;20047;-88
2022/08/19 14:17:13;;;;;;;16.52;10.25;;;;;;;;;;4971688;28;20054;-94
2022/08/19 14:19:39;;;;;;;15.82;9.95;;;;;;;;;;5002912;28;20498;-88
2022/08/19 14:22:05;;;;;;;10.38;7.97;;;;;;;;;;4970516;28;20058;-87
2022/08/19 14:24:31;;;;;;;15.40;10.73;;;;;;;;;;4994643;28;20066;-87
2022/08/19 14:27:00;;;;;;;11.48;9.98;;;;;;;;;;5000108;28;20039;-87
2022/08/19 14:29:28;;;;;;;10.60;8.90;;;;;;;;;;4971304;28;20066;-88
2022/08/19 14:31:56;;;;;;;9.65;7.45;;;;;;;;;;5017626;28;20567;-88
2022/08/19 14:34:22;;;;;;;9.98;7.72;;;;;;;;;;4970784;28;20069;-88
2022/08/19 14:36:48;;;;;;;11.85;7.38;;;;;;;;;;5005698;28;20430;-88
2022/08/19 14:39:14;;;;;;;12.07;9.75;;;;;;;;;;5002358;28;20066;-88
2022/08/19 14:41:44;;;;;;;12.43;10.10;;;;;;;;;;4972917;28;20042;-88
2022/08/19 14:44:12;;;;;;;8.77;7.57;;;;;;;;;;4975596;28;20066;-89
2022/08/19 14:46:38;;;;;;;10.27;7.55;;;;;;;;;;4974045;28;20054;-88